sensor_id;sensor_type;location;lat;lon;timestamp;P1;durP1;ratioP1;P2;durP2;ratioP2
29774;SDS011;16676;51.202;6.774;2023-03-24T00:03:09;21.23;;;10.95;;
29774;SDS011;16676;51.202;6.774;2023-03-24T00:07:11;21.05;;;11.02;;
29774;SDS011;16676;51.202;6.774;2023-03-24T00:11:14;19.63;;;10.27;;
29774;SDS011;16676;51.202;6.774;2023-03-24T00:15:18;19.98;;;11.20;;
29774;SDS011;16676;51.202;6.774;2023-03-24T00:19:24;18.77;;;9.88;;
29774;SDS011;16676;51.202;6.774;2023-03-24T00:23:26;19.17;;;10.73;;
29774;SDS011;16676;51.202;6.774;2023-03-24T00:27:31;18.05;;;10.27;;
29774;SDS011;16676;51.202;6.774;2023-03-24T00:31:36;19.60;;;10.20;;
29774;SDS011;16676;51.202;6.774;2023-03-24T00:35:40;18.15;;;9.63;;
29774;SDS011;16676;51.202;6.774;2023-03-24T00:39:44;18.35;;;9.50;;
29774;SDS011;16676;51.202;6.774;2023-03-24T00:43:46;14.43;;;8.40;;
29774;SDS011;16676;51.202;6.774;2023-03-24T00:47:49;18.90;;;9.20;;
29774;SDS011;16676;51.202;6.774;2023-03-24T00:51:54;14.82;;;8.65;;
29774;SDS011;16676;51.202;6.774;2023-03-24T00:55:57;15.45;;;9.20;;
29774;SDS011;16676;51.202;6.774;2023-03-24T00:59:59;16.75;;;8.82;;
29774;SDS011;16676;51.202;6.774;2023-03-24T01:04:10;15.55;;;8.52;;
29774;SDS011;16676;51.202;6.774;2023-03-24T01:08:13;15.25;;;8.55;;
29774;SDS011;16676;51.202;6.774;2023-03-24T01:12:19;14.00;;;7.78;;
29774;SDS011;16676;51.202;6.774;2023-03-24T01:16:21;14.95;;;9.07;;
29774;SDS011;16676;51.202;6.774;2023-03-24T01:20:24;15.15;;;8.20;;
29774;SDS011;16676;51.202;6.774;2023-03-24T01:24:28;14.90;;;7.75;;
29774;SDS011;16676;51.202;6.774;2023-03-24T01:28:30;15.48;;;8.13;;
29774;SDS011;16676;51.202;6.774;2023-03-24T01:32:32;13.35;;;7.85;;
29774;SDS011;16676;51.202;6.774;2023-03-24T01:36:34;15.57;;;8.00;;
29774;SDS011;16676;51.202;6.774;2023-03-24T01:40:38;14.68;;;8.30;;
29774;SDS011;16676;51.202;6.774;2023-03-24T01:44:41;14.32;;;8.02;;
29774;SDS011;16676;51.202;6.774;2023-03-24T01:48:45;12.63;;;7.20;;
29774;SDS011;16676;51.202;6.774;2023-03-24T01:52:50;11.75;;;7.18;;
29774;SDS011;16676;51.202;6.774;2023-03-24T01:56:54;14.10;;;7.15;;
29774;SDS011;16676;51.202;6.774;2023-03-24T02:01:00;11.32;;;6.50;;
29774;SDS011;16676;51.202;6.774;2023-03-24T02:05:04;11.98;;;7.32;;
29774;SDS011;16676;51.202;6.774;2023-03-24T02:09:09;11.45;;;7.30;;
29774;SDS011;16676;51.202;6.774;2023-03-24T02:13:13;13.75;;;6.47;;
29774;SDS011;16676;51.202;6.774;2023-03-24T02:17:26;11.00;;;6.70;;
29774;SDS011;16676;51.202;6.774;2023-03-24T02:26:19;11.52;;;6.75;;
29774;SDS011;16676;51.202;6.774;2023-03-24T02:30:48;11.35;;;6.47;;
29774;SDS011;16676;51.202;6.774;2023-03-24T02:35:17;10.60;;;6.10;;
29774;SDS011;16676;51.202;6.774;2023-03-24T02:44:12;12.80;;;6.70;;
29774;SDS011;16676;51.202;6.774;2023-03-24T02:48:22;10.18;;;6.03;;
29774;SDS011;16676;51.202;6.774;2023-03-24T02:52:31;9.75;;;5.97;;
29774;SDS011;16676;51.202;6.774;2023-03-24T02:56:41;10.90;;;5.88;;
29774;SDS011;16676;51.202;6.774;2023-03-24T03:00:47;12.73;;;6.43;;
29774;SDS011;16676;51.202;6.774;2023-03-24T03:04:53;8.88;;;5.47;;
29774;SDS011;16676;51.202;6.774;2023-03-24T03:08:59;8.82;;;5.53;;
29774;SDS011;16676;51.202;6.774;2023-03-24T03:13:12;9.85;;;5.75;;
29774;SDS011;16676;51.202;6.774;2023-03-24T03:17:17;9.27;;;5.68;;
29774;SDS011;16676;51.202;6.774;2023-03-24T03:21:22;10.63;;;5.53;;
29774;SDS011;16676;51.202;6.774;2023-03-24T03:25:28;8.38;;;5.13;;
29774;SDS011;16676;51.202;6.774;2023-03-24T03:29:36;8.48;;;4.85;;
29774;SDS011;16676;51.202;6.774;2023-03-24T03:33:41;9.32;;;5.40;;
29774;SDS011;16676;51.202;6.774;2023-03-24T03:37:49;7.30;;;4.72;;
29774;SDS011;16676;51.202;6.774;2023-03-24T03:41:58;8.27;;;5.07;;
29774;SDS011;16676;51.202;6.774;2023-03-24T03:46:01;8.77;;;4.88;;
29774;SDS011;16676;51.202;6.774;2023-03-24T03:50:06;8.40;;;4.55;;
29774;SDS011;16676;51.202;6.774;2023-03-24T03:54:10;10.68;;;5.28;;
29774;SDS011;16676;51.202;6.774;2023-03-24T03:58:14;7.07;;;4.53;;
29774;SDS011;16676;51.202;6.774;2023-03-24T04:02:27;7.47;;;4.70;;
29774;SDS011;16676;51.202;6.774;2023-03-24T04:06:40;8.07;;;4.65;;
29774;SDS011;16676;51.202;6.774;2023-03-24T04:10:54;6.38;;;4.20;;
29774;SDS011;16676;51.202;6.774;2023-03-24T04:15:34;7.60;;;4.40;;
29774;SDS011;16676;51.202;6.774;2023-03-24T04:19:45;8.25;;;4.80;;
29774;SDS011;16676;51.202;6.774;2023-03-24T04:24:01;7.30;;;4.50;;
29774;SDS011;16676;51.202;6.774;2023-03-24T04:28:16;7.03;;;4.57;;
29774;SDS011;16676;51.202;6.774;2023-03-24T04:32:26;7.43;;;4.70;;
29774;SDS011;16676;51.202;6.774;2023-03-24T04:36:34;6.53;;;4.03;;
29774;SDS011;16676;51.202;6.774;2023-03-24T04:40:41;6.35;;;4.20;;
29774;SDS011;16676;51.202;6.774;2023-03-24T04:44:48;6.70;;;4.43;;
29774;SDS011;16676;51.202;6.774;2023-03-24T04:48:51;5.68;;;3.85;;
29774;SDS011;16676;51.202;6.774;2023-03-24T04:52:54;6.70;;;4.13;;
29774;SDS011;16676;51.202;6.774;2023-03-24T04:56:57;8.32;;;4.30;;
29774;SDS011;16676;51.202;6.774;2023-03-24T05:01:01;7.72;;;4.03;;
29774;SDS011;16676;51.202;6.774;2023-03-24T05:05:05;7.05;;;3.75;;
29774;SDS011;16676;51.202;6.774;2023-03-24T05:09:09;6.75;;;4.10;;
29774;SDS011;16676;51.202;6.774;2023-03-24T05:13:11;6.68;;;4.05;;
29774;SDS011;16676;51.202;6.774;2023-03-24T05:17:14;7.10;;;3.80;;
29774;SDS011;16676;51.202;6.774;2023-03-24T05:21:16;5.63;;;3.75;;
29774;SDS011;16676;51.202;6.774;2023-03-24T05:25:21;6.35;;;4.07;;
29774;SDS011;16676;51.202;6.774;2023-03-24T05:29:23;7.03;;;4.03;;
29774;SDS011;16676;51.202;6.774;2023-03-24T05:33:25;6.65;;;3.70;;
29774;SDS011;16676;51.202;6.774;2023-03-24T05:37:27;5.47;;;3.47;;
29774;SDS011;16676;51.202;6.774;2023-03-24T05:41:30;7.18;;;4.10;;
29774;SDS011;16676;51.202;6.774;2023-03-24T05:45:32;9.85;;;4.05;;
29774;SDS011;16676;51.202;6.774;2023-03-24T05:49:34;6.70;;;3.90;;
29774;SDS011;16676;51.202;6.774;2023-03-24T05:53:37;7.72;;;4.03;;
29774;SDS011;16676;51.202;6.774;2023-03-24T05:57:40;6.82;;;3.47;;
29774;SDS011;16676;51.202;6.774;2023-03-24T06:01:42;8.30;;;4.47;;
29774;SDS011;16676;51.202;6.774;2023-03-24T06:05:44;7.65;;;4.05;;
29774;SDS011;16676;51.202;6.774;2023-03-24T06:09:46;6.57;;;3.88;;
29774;SDS011;16676;51.202;6.774;2023-03-24T06:13:51;8.93;;;4.32;;
29774;SDS011;16676;51.202;6.774;2023-03-24T06:17:58;12.85;;;4.20;;
29774;SDS011;16676;51.202;6.774;2023-03-24T06:22:00;9.88;;;3.75;;
29774;SDS011;16676;51.202;6.774;2023-03-24T06:26:06;11.32;;;3.53;;
29774;SDS011;16676;51.202;6.774;2023-03-24T06:30:11;8.80;;;4.35;;
29774;SDS011;16676;51.202;6.774;2023-03-24T06:34:14;7.43;;;3.95;;
29774;SDS011;16676;51.202;6.774;2023-03-24T06:38:16;7.03;;;2.92;;
29774;SDS011;16676;51.202;6.774;2023-03-24T06:42:18;10.52;;;2.15;;
29774;SDS011;16676;51.202;6.774;2023-03-24T06:46:21;12.75;;;2.45;;
29774;SDS011;16676;51.202;6.774;2023-03-24T06:50:24;8.75;;;1.85;;
29774;SDS011;16676;51.202;6.774;2023-03-24T06:54:26;5.68;;;1.50;;
29774;SDS011;16676;51.202;6.774;2023-03-24T06:58:28;10.25;;;1.80;;
29774;SDS011;16676;51.202;6.774;2023-03-24T07:02:32;11.73;;;1.30;;
29774;SDS011;16676;51.202;6.774;2023-03-24T07:06:34;10.70;;;2.05;;
29774;SDS011;16676;51.202;6.774;2023-03-24T07:10:36;9.32;;;1.38;;
29774;SDS011;16676;51.202;6.774;2023-03-24T07:14:39;6.50;;;1.48;;
29774;SDS011;16676;51.202;6.774;2023-03-24T07:18:42;6.50;;;1.15;;
29774;SDS011;16676;51.202;6.774;2023-03-24T07:22:44;7.18;;;1.30;;
29774;SDS011;16676;51.202;6.774;2023-03-24T07:26:46;8.02;;;1.33;;
29774;SDS011;16676;51.202;6.774;2023-03-24T07:30:48;6.10;;;1.20;;
29774;SDS011;16676;51.202;6.774;2023-03-24T07:34:51;4.38;;;1.10;;
29774;SDS011;16676;51.202;6.774;2023-03-24T07:38:53;5.97;;;1.05;;
29774;SDS011;16676;51.202;6.774;2023-03-24T07:42:58;3.65;;;1.00;;
29774;SDS011;16676;51.202;6.774;2023-03-24T07:47:00;3.40;;;1.05;;
29774;SDS011;16676;51.202;6.774;2023-03-24T07:51:04;4.38;;;1.08;;
29774;SDS011;16676;51.202;6.774;2023-03-24T07:55:06;5.55;;;1.60;;
29774;SDS011;16676;51.202;6.774;2023-03-24T07:59:11;5.30;;;1.00;;
29774;SDS011;16676;51.202;6.774;2023-03-24T08:03:13;3.28;;;1.08;;
29774;SDS011;16676;51.202;6.774;2023-03-24T08:07:17;3.70;;;1.10;;
29774;SDS011;16676;51.202;6.774;2023-03-24T08:11:19;5.07;;;1.15;;
29774;SDS011;16676;51.202;6.774;2023-03-24T08:15:21;5.53;;;1.30;;
29774;SDS011;16676;51.202;6.774;2023-03-24T08:19:23;3.85;;;0.98;;
29774;SDS011;16676;51.202;6.774;2023-03-24T08:23:26;3.63;;;1.10;;
29774;SDS011;16676;51.202;6.774;2023-03-24T08:27:28;3.58;;;1.02;;
29774;SDS011;16676;51.202;6.774;2023-03-24T08:31:31;3.50;;;1.13;;
29774;SDS011;16676;51.202;6.774;2023-03-24T08:35:33;2.50;;;0.85;;
29774;SDS011;16676;51.202;6.774;2023-03-24T08:39:39;2.30;;;0.80;;
29774;SDS011;16676;51.202;6.774;2023-03-24T08:43:40;2.75;;;0.93;;
29774;SDS011;16676;51.202;6.774;2023-03-24T08:47:43;2.75;;;0.77;;
29774;SDS011;16676;51.202;6.774;2023-03-24T08:51:45;2.42;;;0.80;;
29774;SDS011;16676;51.202;6.774;2023-03-24T08:55:48;2.83;;;0.65;;
29774;SDS011;16676;51.202;6.774;2023-03-24T08:59:50;3.20;;;1.00;;
29774;SDS011;16676;51.202;6.774;2023-03-24T09:03:52;1.92;;;0.90;;
29774;SDS011;16676;51.202;6.774;2023-03-24T09:07:54;2.67;;;0.85;;
29774;SDS011;16676;51.202;6.774;2023-03-24T09:11:59;1.85;;;0.57;;
29774;SDS011;16676;51.202;6.774;2023-03-24T09:16:01;2.20;;;0.80;;
29774;SDS011;16676;51.202;6.774;2023-03-24T09:20:04;2.40;;;0.80;;
29774;SDS011;16676;51.202;6.774;2023-03-24T09:24:10;2.93;;;0.83;;
29774;SDS011;16676;51.202;6.774;2023-03-24T09:28:14;3.50;;;1.05;;
29774;SDS011;16676;51.202;6.774;2023-03-24T09:32:15;2.28;;;0.80;;
29774;SDS011;16676;51.202;6.774;2023-03-24T09:36:17;2.13;;;0.88;;
29774;SDS011;16676;51.202;6.774;2023-03-24T09:40:21;2.17;;;0.73;;
29774;SDS011;16676;51.202;6.774;2023-03-24T09:44:27;2.75;;;0.90;;
29774;SDS011;16676;51.202;6.774;2023-03-24T09:48:35;4.00;;;1.10;;
29774;SDS011;16676;51.202;6.774;2023-03-24T09:52:41;5.25;;;1.00;;
29774;SDS011;16676;51.202;6.774;2023-03-24T09:56:45;4.15;;;1.10;;
29774;SDS011;16676;51.202;6.774;2023-03-24T10:00:49;5.13;;;0.95;;
29774;SDS011;16676;51.202;6.774;2023-03-24T10:04:51;2.95;;;0.90;;
29774;SDS011;16676;51.202;6.774;2023-03-24T10:08:56;3.67;;;0.90;;
29774;SDS011;16676;51.202;6.774;2023-03-24T10:13:11;4.00;;;1.10;;
29774;SDS011;16676;51.202;6.774;2023-03-24T10:17:23;3.50;;;0.90;;
29774;SDS011;16676;51.202;6.774;2023-03-24T10:21:34;6.63;;;1.30;;
29774;SDS011;16676;51.202;6.774;2023-03-24T10:25:42;7.53;;;1.58;;
29774;SDS011;16676;51.202;6.774;2023-03-24T10:29:48;7.15;;;1.85;;
29774;SDS011;16676;51.202;6.774;2023-03-24T10:33:56;8.35;;;1.90;;
29774;SDS011;16676;51.202;6.774;2023-03-24T10:37:58;6.75;;;1.67;;
29774;SDS011;16676;51.202;6.774;2023-03-24T10:42:03;23.05;;;2.38;;
29774;SDS011;16676;51.202;6.774;2023-03-24T10:46:05;6.97;;;1.70;;
29774;SDS011;16676;51.202;6.774;2023-03-24T10:50:10;8.50;;;1.73;;
29774;SDS011;16676;51.202;6.774;2023-03-24T10:54:15;6.90;;;1.63;;
29774;SDS011;16676;51.202;6.774;2023-03-24T10:58:19;4.53;;;1.33;;
29774;SDS011;16676;51.202;6.774;2023-03-24T11:02:28;5.25;;;1.75;;
29774;SDS011;16676;51.202;6.774;2023-03-24T11:06:33;5.82;;;1.50;;
29774;SDS011;16676;51.202;6.774;2023-03-24T11:10:35;6.60;;;1.33;;
29774;SDS011;16676;51.202;6.774;2023-03-24T11:14:40;4.80;;;1.48;;
29774;SDS011;16676;51.202;6.774;2023-03-24T11:22:57;4.88;;;1.40;;
29774;SDS011;16676;51.202;6.774;2023-03-24T11:27:01;6.53;;;1.90;;
29774;SDS011;16676;51.202;6.774;2023-03-24T11:31:05;3.22;;;1.33;;
29774;SDS011;16676;51.202;6.774;2023-03-24T11:35:10;7.75;;;1.60;;
29774;SDS011;16676;51.202;6.774;2023-03-24T11:39:20;6.70;;;1.58;;
29774;SDS011;16676;51.202;6.774;2023-03-24T11:43:24;6.90;;;1.52;;
29774;SDS011;16676;51.202;6.774;2023-03-24T11:47:28;5.55;;;1.40;;
29774;SDS011;16676;51.202;6.774;2023-03-24T11:51:33;4.20;;;1.10;;
29774;SDS011;16676;51.202;6.774;2023-03-24T11:55:41;5.50;;;1.40;;
29774;SDS011;16676;51.202;6.774;2023-03-24T11:59:49;11.18;;;1.88;;
29774;SDS011;16676;51.202;6.774;2023-03-24T12:04:07;7.93;;;1.48;;
29774;SDS011;16676;51.202;6.774;2023-03-24T12:08:27;5.90;;;1.50;;
29774;SDS011;16676;51.202;6.774;2023-03-24T12:12:42;6.10;;;2.00;;
29774;SDS011;16676;51.202;6.774;2023-03-24T12:16:52;6.88;;;1.52;;
29774;SDS011;16676;51.202;6.774;2023-03-24T12:21:05;7.13;;;1.75;;
29774;SDS011;16676;51.202;6.774;2023-03-24T12:25:20;7.78;;;1.63;;
29774;SDS011;16676;51.202;6.774;2023-03-24T12:29:46;4.60;;;1.08;;
29774;SDS011;16676;51.202;6.774;2023-03-24T12:34:02;7.47;;;1.40;;
29774;SDS011;16676;51.202;6.774;2023-03-24T12:38:20;6.00;;;1.33;;
29774;SDS011;16676;51.202;6.774;2023-03-24T12:42:31;5.00;;;1.30;;
29774;SDS011;16676;51.202;6.774;2023-03-24T12:46:43;6.80;;;1.42;;
29774;SDS011;16676;51.202;6.774;2023-03-24T12:50:57;5.47;;;1.30;;
29774;SDS011;16676;51.202;6.774;2023-03-24T12:55:15;6.25;;;1.35;;
29774;SDS011;16676;51.202;6.774;2023-03-24T12:59:21;7.43;;;1.63;;
29774;SDS011;16676;51.202;6.774;2023-03-24T13:03:32;5.38;;;1.52;;
29774;SDS011;16676;51.202;6.774;2023-03-24T13:07:38;5.47;;;1.33;;
29774;SDS011;16676;51.202;6.774;2023-03-24T13:11:45;3.70;;;1.08;;
29774;SDS011;16676;51.202;6.774;2023-03-24T13:15:54;4.68;;;1.20;;
29774;SDS011;16676;51.202;6.774;2023-03-24T13:20:00;6.88;;;1.73;;
29774;SDS011;16676;51.202;6.774;2023-03-24T13:28:09;6.90;;;1.65;;
29774;SDS011;16676;51.202;6.774;2023-03-24T13:32:21;4.90;;;1.58;;
29774;SDS011;16676;51.202;6.774;2023-03-24T13:36:37;8.90;;;1.10;;
29774;SDS011;16676;51.202;6.774;2023-03-24T13:40:46;6.45;;;1.40;;
29774;SDS011;16676;51.202;6.774;2023-03-24T13:44:51;5.22;;;1.35;;
29774;SDS011;16676;51.202;6.774;2023-03-24T13:48:54;5.93;;;1.05;;
29774;SDS011;16676;51.202;6.774;2023-03-24T13:53:00;3.85;;;1.00;;
29774;SDS011;16676;51.202;6.774;2023-03-24T13:57:07;4.28;;;1.20;;
29774;SDS011;16676;51.202;6.774;2023-03-24T14:01:18;3.67;;;1.10;;
29774;SDS011;16676;51.202;6.774;2023-03-24T14:05:34;3.78;;;1.17;;
29774;SDS011;16676;51.202;6.774;2023-03-24T14:09:55;11.43;;;0.98;;
29774;SDS011;16676;51.202;6.774;2023-03-24T14:14:04;3.63;;;1.00;;
29774;SDS011;16676;51.202;6.774;2023-03-24T14:18:13;4.03;;;0.98;;
29774;SDS011;16676;51.202;6.774;2023-03-24T14:22:38;3.42;;;1.10;;
29774;SDS011;16676;51.202;6.774;2023-03-24T14:26:44;3.20;;;0.90;;
29774;SDS011;16676;51.202;6.774;2023-03-24T14:30:55;2.22;;;1.00;;
29774;SDS011;16676;51.202;6.774;2023-03-24T14:35:02;5.00;;;0.90;;
29774;SDS011;16676;51.202;6.774;2023-03-24T14:39:06;2.88;;;1.00;;
29774;SDS011;16676;51.202;6.774;2023-03-24T14:43:17;2.37;;;1.00;;
29774;SDS011;16676;51.202;6.774;2023-03-24T14:47:23;1.98;;;0.75;;
29774;SDS011;16676;51.202;6.774;2023-03-24T14:51:32;2.83;;;0.95;;
29774;SDS011;16676;51.202;6.774;2023-03-24T14:55:40;2.45;;;0.70;;
29774;SDS011;16676;51.202;6.774;2023-03-24T14:59:46;3.97;;;1.00;;
29774;SDS011;16676;51.202;6.774;2023-03-24T15:03:54;1.75;;;0.68;;
29774;SDS011;16676;51.202;6.774;2023-03-24T15:08:02;5.65;;;1.10;;
29774;SDS011;16676;51.202;6.774;2023-03-24T15:12:10;2.30;;;0.85;;
29774;SDS011;16676;51.202;6.774;2023-03-24T15:16:17;4.30;;;1.02;;
29774;SDS011;16676;51.202;6.774;2023-03-24T15:20:22;6.68;;;1.13;;
29774;SDS011;16676;51.202;6.774;2023-03-24T15:24:27;7.20;;;0.75;;
29774;SDS011;16676;51.202;6.774;2023-03-24T15:28:32;2.50;;;0.82;;
29774;SDS011;16676;51.202;6.774;2023-03-24T15:32:35;2.30;;;0.65;;
29774;SDS011;16676;51.202;6.774;2023-03-24T15:36:39;1.92;;;0.50;;
29774;SDS011;16676;51.202;6.774;2023-03-24T15:40:50;5.50;;;0.60;;
29774;SDS011;16676;51.202;6.774;2023-03-24T15:44:55;2.30;;;0.60;;
29774;SDS011;16676;51.202;6.774;2023-03-24T15:49:15;3.22;;;0.70;;
29774;SDS011;16676;51.202;6.774;2023-03-24T15:53:22;2.22;;;0.70;;
29774;SDS011;16676;51.202;6.774;2023-03-24T15:57:27;1.98;;;0.65;;
29774;SDS011;16676;51.202;6.774;2023-03-24T16:01:29;2.78;;;0.77;;
29774;SDS011;16676;51.202;6.774;2023-03-24T16:05:36;4.05;;;0.93;;
29774;SDS011;16676;51.202;6.774;2023-03-24T16:09:53;2.25;;;0.60;;
29774;SDS011;16676;51.202;6.774;2023-03-24T16:13:58;1.48;;;0.45;;
29774;SDS011;16676;51.202;6.774;2023-03-24T16:18:01;2.10;;;0.70;;
29774;SDS011;16676;51.202;6.774;2023-03-24T16:22:07;3.60;;;0.80;;
29774;SDS011;16676;51.202;6.774;2023-03-24T16:26:11;1.77;;;0.52;;
29774;SDS011;16676;51.202;6.774;2023-03-24T16:30:16;1.95;;;0.55;;
29774;SDS011;16676;51.202;6.774;2023-03-24T16:34:20;1.73;;;0.60;;
29774;SDS011;16676;51.202;6.774;2023-03-24T16:38:24;1.42;;;0.50;;
29774;SDS011;16676;51.202;6.774;2023-03-24T16:42:27;2.10;;;0.52;;
29774;SDS011;16676;51.202;6.774;2023-03-24T16:46:29;1.45;;;0.50;;
29774;SDS011;16676;51.202;6.774;2023-03-24T16:50:33;1.33;;;0.52;;
29774;SDS011;16676;51.202;6.774;2023-03-24T16:54:38;3.38;;;0.70;;
29774;SDS011;16676;51.202;6.774;2023-03-24T16:58:40;1.35;;;0.45;;
29774;SDS011;16676;51.202;6.774;2023-03-24T17:02:42;1.73;;;0.63;;
29774;SDS011;16676;51.202;6.774;2023-03-24T17:06:48;1.20;;;0.40;;
29774;SDS011;16676;51.202;6.774;2023-03-24T17:10:53;1.40;;;0.65;;
29774;SDS011;16676;51.202;6.774;2023-03-24T17:14:55;0.90;;;0.40;;
29774;SDS011;16676;51.202;6.774;2023-03-24T17:18:57;1.70;;;0.63;;
29774;SDS011;16676;51.202;6.774;2023-03-24T17:22:59;1.30;;;0.50;;
29774;SDS011;16676;51.202;6.774;2023-03-24T17:27:03;1.92;;;0.50;;
29774;SDS011;16676;51.202;6.774;2023-03-24T17:31:16;1.42;;;0.40;;
29774;SDS011;16676;51.202;6.774;2023-03-24T17:35:18;3.15;;;0.50;;
29774;SDS011;16676;51.202;6.774;2023-03-24T17:39:21;1.40;;;0.60;;
29774;SDS011;16676;51.202;6.774;2023-03-24T17:43:24;3.70;;;0.80;;
29774;SDS011;16676;51.202;6.774;2023-03-24T17:47:28;1.95;;;0.60;;
29774;SDS011;16676;51.202;6.774;2023-03-24T17:56:09;5.68;;;0.60;;
29774;SDS011;16676;51.202;6.774;2023-03-24T18:00:12;8.43;;;0.60;;
29774;SDS011;16676;51.202;6.774;2023-03-24T18:04:15;4.22;;;0.52;;
29774;SDS011;16676;51.202;6.774;2023-03-24T18:08:17;4.07;;;0.68;;
29774;SDS011;16676;51.202;6.774;2023-03-24T18:12:21;3.63;;;0.80;;
29774;SDS011;16676;51.202;6.774;2023-03-24T18:16:25;4.57;;;1.02;;
29774;SDS011;16676;51.202;6.774;2023-03-24T18:20:29;2.53;;;1.02;;
29774;SDS011;16676;51.202;6.774;2023-03-24T18:24:32;3.70;;;1.38;;
29774;SDS011;16676;51.202;6.774;2023-03-24T18:28:36;6.30;;;1.30;;
29774;SDS011;16676;51.202;6.774;2023-03-24T18:32:38;3.92;;;1.20;;
29774;SDS011;16676;51.202;6.774;2023-03-24T18:36:42;3.08;;;0.88;;
29774;SDS011;16676;51.202;6.774;2023-03-24T18:40:45;3.38;;;1.05;;
29774;SDS011;16676;51.202;6.774;2023-03-24T18:44:48;4.22;;;1.45;;
29774;SDS011;16676;51.202;6.774;2023-03-24T18:48:50;3.58;;;1.00;;
29774;SDS011;16676;51.202;6.774;2023-03-24T18:52:52;3.30;;;1.35;;
29774;SDS011;16676;51.202;6.774;2023-03-24T18:56:54;4.25;;;1.20;;
29774;SDS011;16676;51.202;6.774;2023-03-24T19:01:02;4.25;;;1.23;;
29774;SDS011;16676;51.202;6.774;2023-03-24T19:05:06;3.08;;;1.50;;
29774;SDS011;16676;51.202;6.774;2023-03-24T19:09:09;5.88;;;1.55;;
29774;SDS011;16676;51.202;6.774;2023-03-24T19:13:13;3.72;;;1.08;;
29774;SDS011;16676;51.202;6.774;2023-03-24T19:17:17;7.90;;;1.80;;
29774;SDS011;16676;51.202;6.774;2023-03-24T19:21:19;5.90;;;1.33;;
29774;SDS011;16676;51.202;6.774;2023-03-24T19:25:22;5.05;;;1.33;;
29774;SDS011;16676;51.202;6.774;2023-03-24T19:29:24;4.57;;;1.45;;
29774;SDS011;16676;51.202;6.774;2023-03-24T19:33:28;4.18;;;1.35;;
29774;SDS011;16676;51.202;6.774;2023-03-24T19:37:30;6.40;;;1.55;;
29774;SDS011;16676;51.202;6.774;2023-03-24T19:41:32;6.32;;;1.77;;
29774;SDS011;16676;51.202;6.774;2023-03-24T19:45:34;4.22;;;1.60;;
29774;SDS011;16676;51.202;6.774;2023-03-24T19:49:37;5.05;;;1.20;;
29774;SDS011;16676;51.202;6.774;2023-03-24T19:53:39;5.93;;;1.83;;
29774;SDS011;16676;51.202;6.774;2023-03-24T19:57:41;5.63;;;1.50;;
29774;SDS011;16676;51.202;6.774;2023-03-24T20:01:43;3.42;;;1.30;;
29774;SDS011;16676;51.202;6.774;2023-03-24T20:05:46;5.03;;;1.45;;
29774;SDS011;16676;51.202;6.774;2023-03-24T20:09:49;2.67;;;1.20;;
29774;SDS011;16676;51.202;6.774;2023-03-24T20:13:51;3.25;;;1.30;;
29774;SDS011;16676;51.202;6.774;2023-03-24T20:17:53;4.85;;;1.50;;
29774;SDS011;16676;51.202;6.774;2023-03-24T20:21:56;5.50;;;1.50;;
29774;SDS011;16676;51.202;6.774;2023-03-24T20:25:58;4.88;;;1.17;;
29774;SDS011;16676;51.202;6.774;2023-03-24T20:30:00;5.20;;;1.10;;
29774;SDS011;16676;51.202;6.774;2023-03-24T20:34:02;3.17;;;1.00;;
29774;SDS011;16676;51.202;6.774;2023-03-24T20:38:06;3.53;;;1.02;;
29774;SDS011;16676;51.202;6.774;2023-03-24T20:42:08;3.40;;;1.10;;
29774;SDS011;16676;51.202;6.774;2023-03-24T20:46:10;2.75;;;1.10;;
29774;SDS011;16676;51.202;6.774;2023-03-24T20:50:16;6.18;;;1.27;;
29774;SDS011;16676;51.202;6.774;2023-03-24T20:54:20;1.98;;;0.75;;
29774;SDS011;16676;51.202;6.774;2023-03-24T20:58:22;4.25;;;1.05;;
29774;SDS011;16676;51.202;6.774;2023-03-24T21:02:24;1.83;;;0.75;;
29774;SDS011;16676;51.202;6.774;2023-03-24T21:06:26;3.10;;;1.00;;
29774;SDS011;16676;51.202;6.774;2023-03-24T21:10:29;5.07;;;1.42;;
29774;SDS011;16676;51.202;6.774;2023-03-24T21:14:31;4.22;;;1.00;;
29774;SDS011;16676;51.202;6.774;2023-03-24T21:18:33;3.03;;;0.93;;
29774;SDS011;16676;51.202;6.774;2023-03-24T21:22:36;2.17;;;0.90;;
29774;SDS011;16676;51.202;6.774;2023-03-24T21:26:48;2.13;;;0.82;;
29774;SDS011;16676;51.202;6.774;2023-03-24T21:30:50;5.10;;;0.98;;
29774;SDS011;16676;51.202;6.774;2023-03-24T21:34:52;2.63;;;0.85;;
29774;SDS011;16676;51.202;6.774;2023-03-24T21:38:54;4.45;;;1.00;;
29774;SDS011;16676;51.202;6.774;2023-03-24T21:42:58;7.50;;;0.90;;
29774;SDS011;16676;51.202;6.774;2023-03-24T21:47:04;6.18;;;0.80;;
29774;SDS011;16676;51.202;6.774;2023-03-24T21:51:07;4.97;;;0.77;;
29774;SDS011;16676;51.202;6.774;2023-03-24T21:55:10;3.25;;;1.10;;
29774;SDS011;16676;51.202;6.774;2023-03-24T21:59:15;1.65;;;0.57;;
29774;SDS011;16676;51.202;6.774;2023-03-24T22:03:17;3.05;;;0.80;;
29774;SDS011;16676;51.202;6.774;2023-03-24T22:07:20;2.22;;;0.70;;
29774;SDS011;16676;51.202;6.774;2023-03-24T22:11:23;3.20;;;0.73;;
29774;SDS011;16676;51.202;6.774;2023-03-24T22:15:26;6.53;;;1.10;;
29774;SDS011;16676;51.202;6.774;2023-03-24T22:19:29;4.20;;;0.60;;
29774;SDS011;16676;51.202;6.774;2023-03-24T22:23:32;4.82;;;0.75;;
29774;SDS011;16676;51.202;6.774;2023-03-24T22:27:37;2.40;;;0.70;;
29774;SDS011;16676;51.202;6.774;2023-03-24T22:31:40;3.35;;;0.60;;
29774;SDS011;16676;51.202;6.774;2023-03-24T22:35:44;3.92;;;0.60;;
29774;SDS011;16676;51.202;6.774;2023-03-24T22:39:46;1.73;;;0.70;;
29774;SDS011;16676;51.202;6.774;2023-03-24T22:43:48;3.75;;;0.90;;
29774;SDS011;16676;51.202;6.774;2023-03-24T22:47:51;2.55;;;0.60;;
29774;SDS011;16676;51.202;6.774;2023-03-24T22:51:53;3.80;;;0.70;;
29774;SDS011;16676;51.202;6.774;2023-03-24T22:55:55;2.97;;;0.85;;
29774;SDS011;16676;51.202;6.774;2023-03-24T22:59:57;2.17;;;0.68;;
29774;SDS011;16676;51.202;6.774;2023-03-24T23:04:02;3.00;;;0.77;;
29774;SDS011;16676;51.202;6.774;2023-03-24T23:08:04;4.38;;;0.70;;
29774;SDS011;16676;51.202;6.774;2023-03-24T23:12:06;3.90;;;0.70;;
29774;SDS011;16676;51.202;6.774;2023-03-24T23:16:08;1.75;;;0.60;;
29774;SDS011;16676;51.202;6.774;2023-03-24T23:20:12;1.95;;;0.63;;
29774;SDS011;16676;51.202;6.774;2023-03-24T23:24:14;2.65;;;0.65;;
29774;SDS011;16676;51.202;6.774;2023-03-24T23:28:16;3.92;;;0.60;;
29774;SDS011;16676;51.202;6.774;2023-03-24T23:32:18;2.05;;;0.45;;
29774;SDS011;16676;51.202;6.774;2023-03-24T23:36:23;1.55;;;0.52;;
29774;SDS011;16676;51.202;6.774;2023-03-24T23:40:27;2.70;;;0.60;;
29774;SDS011;16676;51.202;6.774;2023-03-24T23:44:29;1.15;;;0.77;;
29774;SDS011;16676;51.202;6.774;2023-03-24T23:48:31;2.40;;;0.63;;
29774;SDS011;16676;51.202;6.774;2023-03-24T23:52:35;1.92;;;0.57;;
29774;SDS011;16676;51.202;6.774;2023-03-24T23:56:36;1.13;;;0.40;;
